createdAt,value
2022-10-12T00:00:08.370Z,31.27
2022-10-12T00:02:35.306Z,25.17
2022-10-12T00:05:02.525Z,28.93
2022-10-12T00:07:29.581Z,27.37
2022-10-12T00:09:58.206Z,24.13
2022-10-12T00:12:25.497Z,24.53
2022-10-12T00:14:52.577Z,23.47
2022-10-12T00:17:19.922Z,29.07
2022-10-12T00:19:46.877Z,23.07
2022-10-12T00:22:13.801Z,21.10
2022-10-12T00:24:43.002Z,21.87
2022-10-12T00:27:11.136Z,20.50
2022-10-12T00:29:38.653Z,22.03
2022-10-12T00:32:05.871Z,24.80
2022-10-12T00:34:33.004Z,24.20
2022-10-12T00:37:00.095Z,27.83
2022-10-12T00:39:27.207Z,25.43
2022-10-12T00:41:54.418Z,28.57
2022-10-12T00:44:46.457Z,23.40
2022-10-12T00:47:28.722Z,23.07
2022-10-12T00:50:08.196Z,21.13
2022-10-12T00:52:59.694Z,27.27
2022-10-12T00:55:31.407Z,21.30
2022-10-12T00:58:00.869Z,26.80
2022-10-12T01:00:28.797Z,25.80
2022-10-12T01:02:58.280Z,22.33
2022-10-12T01:05:25.476Z,24.30
2022-10-12T01:07:52.391Z,24.27
2022-10-12T01:10:19.957Z,19.73
2022-10-12T01:12:49.525Z,26.73
2022-10-12T01:15:17.524Z,21.90
2022-10-12T01:18:10.046Z,22.17
2022-10-12T01:20:59.423Z,27.47
2022-10-12T01:23:29.156Z,21.13
2022-10-12T01:26:21.606Z,23.40
2022-10-12T01:28:55.646Z,26.37
2022-10-12T01:31:40.958Z,27.57
2022-10-12T01:34:34.013Z,26.33
2022-10-12T01:37:08.228Z,28.87
2022-10-12T01:39:41.473Z,23.53
2022-10-12T01:42:15.673Z,25.37
2022-10-12T01:44:44.652Z,26.07
2022-10-12T01:47:14.061Z,20.17
2022-10-12T01:49:44.232Z,26.70
2022-10-12T01:52:24.503Z,24.40
2022-10-12T01:54:57.154Z,23.30
2022-10-12T01:58:02.477Z,21.13
2022-10-12T02:00:34.250Z,29.33
2022-10-12T02:03:43.737Z,22.27
2022-10-12T02:06:15.444Z,25.43
2022-10-12T02:08:54.409Z,23.17
2022-10-12T02:11:24.306Z,29.37
2022-10-12T02:13:58.906Z,25.63
2022-10-12T02:16:42.436Z,23.13
2022-10-12T02:19:13.768Z,29.87
2022-10-12T02:21:41.659Z,22.20
2022-10-12T02:24:11.667Z,24.87
2022-10-12T02:26:42.297Z,24.60
2022-10-12T02:29:16.116Z,18.03
2022-10-12T02:32:03.498Z,27.03
2022-10-12T02:34:54.734Z,23.87
2022-10-12T02:37:35.039Z,22.33
2022-10-12T02:40:21.632Z,22.97
2022-10-12T02:43:09.892Z,25.17
2022-10-12T02:45:42.762Z,26.70
2022-10-12T02:48:14.924Z,20.97
2022-10-12T02:50:42.608Z,23.83
2022-10-12T02:53:10.643Z,23.87
2022-10-12T02:55:59.259Z,21.13
2022-10-12T02:58:26.405Z,23.43
2022-10-12T03:00:55.684Z,23.13
2022-10-12T03:03:22.993Z,22.97
2022-10-12T03:05:51.194Z,26.80
2022-10-12T03:08:18.119Z,24.37
2022-10-12T03:10:45.269Z,24.00
2022-10-12T03:13:12.556Z,24.23
2022-10-12T03:15:40.496Z,28.83
2022-10-12T03:18:07.691Z,26.70
2022-10-12T03:20:36.679Z,22.20
2022-10-12T03:23:03.754Z,23.70
2022-10-12T03:25:30.903Z,16.30
2022-10-12T03:27:58.007Z,23.13
2022-10-12T03:30:24.858Z,21.90
2022-10-12T03:32:51.739Z,17.77
2022-10-12T03:35:18.876Z,19.50
2022-10-12T03:37:46.039Z,26.43
2022-10-12T03:40:14.363Z,25.03
2022-10-12T03:42:41.266Z,23.57
2022-10-12T03:45:09.321Z,26.20
2022-10-12T03:47:38.063Z,28.43
2022-10-12T03:50:07.484Z,24.37
2022-10-12T03:52:34.449Z,22.93
2022-10-12T03:55:01.489Z,24.53
2022-10-12T03:57:28.591Z,21.93
2022-10-12T03:59:55.676Z,22.10
2022-10-12T04:02:22.525Z,23.30
2022-10-12T04:04:49.423Z,27.37
2022-10-12T04:07:16.542Z,21.50
2022-10-12T04:09:44.610Z,23.40
2022-10-12T04:12:11.735Z,29.23
2022-10-12T04:14:38.583Z,27.33
2022-10-12T04:17:05.591Z,29.87
2022-10-12T04:19:32.592Z,23.27
2022-10-12T04:21:59.473Z,32.20
2022-10-12T04:24:26.610Z,31.00
2022-10-12T04:26:53.752Z,34.43
2022-10-12T04:29:22.174Z,27.73
2022-10-12T04:31:50.381Z,24.33
2022-10-12T04:34:17.399Z,24.50
2022-10-12T04:36:44.537Z,30.00
2022-10-12T04:39:11.871Z,30.43
2022-10-12T04:41:39.688Z,27.43
2022-10-12T04:44:07.746Z,28.83
2022-10-12T04:46:35.008Z,29.37
2022-10-12T04:49:02.182Z,31.93
2022-10-12T04:51:29.208Z,24.20
2022-10-12T04:53:56.362Z,29.33
2022-10-12T04:56:23.497Z,22.97
2022-10-12T04:58:50.668Z,29.70
2022-10-12T05:01:17.872Z,27.63
2022-10-12T05:03:44.938Z,24.43
2022-10-12T05:06:12.054Z,31.30
2022-10-12T05:08:40.136Z,29.03
2022-10-12T05:11:07.287Z,29.83
2022-10-12T05:13:34.429Z,24.90
2022-10-12T05:16:01.617Z,29.13
2022-10-12T05:18:28.700Z,23.97
2022-10-12T05:20:57.155Z,26.13
2022-10-12T05:23:24.357Z,26.43
2022-10-12T05:25:51.582Z,23.63
2022-10-12T05:28:18.594Z,25.60
2022-10-12T05:30:48.939Z,26.53
2022-10-12T05:33:15.928Z,30.60
2022-10-12T05:35:47.467Z,29.13
2022-10-12T05:38:16.054Z,24.60
2022-10-12T05:40:43.789Z,28.93
2022-10-12T05:43:10.871Z,32.93
2022-10-12T05:45:37.722Z,29.10
2022-10-12T05:48:04.847Z,36.73
2022-10-12T05:50:31.914Z,32.77
2022-10-12T05:52:58.877Z,37.43
2022-10-12T05:55:25.688Z,44.77
2022-10-12T05:57:55.956Z,42.80
2022-10-12T06:00:23.090Z,42.87
2022-10-12T06:02:50.038Z,43.17
2022-10-12T06:05:17.246Z,44.43
2022-10-12T06:07:44.346Z,46.87
2022-10-12T06:10:12.139Z,38.60
2022-10-12T06:12:39.797Z,32.97
2022-10-12T06:15:07.798Z,36.00
2022-10-12T06:17:34.778Z,32.13
2022-10-12T06:20:01.747Z,32.03
2022-10-12T06:22:28.914Z,32.97
2022-10-12T06:24:56.039Z,29.30
2022-10-12T06:27:22.931Z,27.67
2022-10-12T06:29:50.025Z,33.23
2022-10-12T06:32:16.945Z,27.40
2022-10-12T06:34:44.079Z,31.63
2022-10-12T06:37:25.403Z,29.60
2022-10-12T06:39:58.322Z,33.20
2022-10-12T06:42:25.508Z,29.80
2022-10-12T06:44:52.620Z,31.00
2022-10-12T06:47:19.763Z,30.53
2022-10-12T06:49:46.898Z,25.30
2022-10-12T06:52:13.737Z,26.00
2022-10-12T06:54:41.462Z,29.07
2022-10-12T06:57:08.488Z,26.43
2022-10-12T06:59:35.677Z,27.87
2022-10-12T07:02:02.970Z,23.60
2022-10-12T07:04:29.881Z,25.80
2022-10-12T07:06:56.681Z,25.50
2022-10-12T07:09:23.496Z,26.20
2022-10-12T07:11:50.340Z,24.17
2022-10-12T07:14:17.142Z,29.20
2022-10-12T07:16:44.129Z,25.13
2022-10-12T07:19:11.141Z,27.50
2022-10-12T07:21:38.186Z,27.73
2022-10-12T07:24:05.701Z,23.37
2022-10-12T07:26:32.821Z,26.20
2022-10-12T07:29:02.215Z,26.50
2022-10-12T07:31:29.278Z,25.53
2022-10-12T07:33:56.382Z,23.03
2022-10-12T07:36:24.541Z,23.97
2022-10-12T07:38:51.676Z,26.47
2022-10-12T07:41:19.218Z,29.23
2022-10-12T07:43:46.365Z,23.47
2022-10-12T07:46:13.354Z,22.10
2022-10-12T07:48:47.239Z,19.53
2022-10-12T07:51:16.146Z,28.57
2022-10-12T07:53:43.141Z,25.37
2022-10-12T07:56:15.031Z,26.97
2022-10-12T07:58:54.353Z,24.73
2022-10-12T08:01:23.761Z,20.30
2022-10-12T08:03:51.241Z,25.57
2022-10-12T08:06:21.902Z,21.27
2022-10-12T08:08:49.609Z,18.97
2022-10-12T08:11:17.163Z,23.63
2022-10-12T08:13:44.726Z,19.90
2022-10-12T08:16:18.802Z,18.57
2022-10-12T08:18:46.331Z,21.00
2022-10-12T08:21:15.282Z,19.40
2022-10-12T08:23:44.633Z,18.07
2022-10-12T08:26:13.414Z,16.37
2022-10-12T08:28:40.494Z,15.90
2022-10-12T08:31:10.025Z,20.67
2022-10-12T08:33:37.142Z,16.43
2022-10-12T08:36:06.593Z,16.93
2022-10-12T08:38:35.135Z,20.47
2022-10-12T08:41:10.885Z,16.67
2022-10-12T08:44:24.112Z,18.03
2022-10-12T08:47:11.059Z,18.10
2022-10-12T08:49:40.330Z,13.67
2022-10-12T08:52:34.853Z,13.53
2022-10-12T08:55:16.710Z,10.33
2022-10-12T08:57:49.053Z,14.57
2022-10-12T09:00:18.142Z,13.33
2022-10-12T09:03:01.458Z,13.23
2022-10-12T09:05:42.068Z,12.40
2022-10-12T09:08:35.135Z,13.60
2022-10-12T09:11:26.170Z,12.03
2022-10-12T09:14:01.593Z,19.67
2022-10-12T09:16:31.312Z,15.80
2022-10-12T09:19:10.086Z,13.20
2022-10-12T09:21:39.867Z,11.30
2022-10-12T09:24:15.100Z,11.63
2022-10-12T09:26:43.811Z,14.83
2022-10-12T09:29:26.902Z,13.17
2022-10-12T09:32:15.347Z,11.83
2022-10-12T09:34:43.471Z,12.53
2022-10-12T09:37:19.870Z,9.90
2022-10-12T09:39:47.141Z,14.07
2022-10-12T09:42:14.027Z,10.70
2022-10-12T09:44:59.335Z,19.67
2022-10-12T09:47:33.545Z,11.27
2022-10-12T09:50:02.418Z,11.77
2022-10-12T09:52:30.595Z,10.70
2022-10-12T09:55:15.407Z,8.13
2022-10-12T09:57:51.778Z,14.07
2022-10-12T10:00:27.882Z,18.30
2022-10-12T10:02:56.309Z,12.80
2022-10-12T10:05:27.730Z,9.13
2022-10-12T10:08:19.404Z,10.97
2022-10-12T10:10:53.525Z,8.13
2022-10-12T10:13:22.670Z,11.03
2022-10-12T10:16:01.273Z,10.87
2022-10-12T10:18:48.770Z,11.07
2022-10-12T10:21:45.187Z,9.70
2022-10-12T10:24:31.667Z,11.30
2022-10-12T10:27:02.084Z,9.77
2022-10-12T10:29:36.325Z,11.90
2022-10-12T10:32:30.159Z,14.60
2022-10-12T10:35:21.186Z,8.97
2022-10-12T10:37:56.423Z,14.00
2022-10-12T10:40:29.154Z,6.87
2022-10-12T10:42:58.510Z,10.63
2022-10-12T10:45:37.571Z,9.93
2022-10-12T10:48:11.480Z,15.87
2022-10-12T10:50:41.376Z,11.53
2022-10-12T10:53:44.234Z,7.17
2022-10-12T10:56:16.679Z,10.37
2022-10-12T10:58:59.090Z,6.23
2022-10-12T11:01:48.369Z,7.87
2022-10-12T11:04:21.788Z,8.70
2022-10-12T11:06:53.710Z,13.93
2022-10-12T11:09:32.332Z,11.03
2022-10-12T11:12:12.546Z,9.67
2022-10-12T11:14:45.036Z,14.03
2022-10-12T11:17:23.958Z,8.83
2022-10-12T11:20:33.330Z,8.10
2022-10-12T11:23:24.563Z,11.60
2022-10-12T11:26:00.283Z,10.52
2022-10-12T11:28:31.266Z,9.45
2022-10-12T11:30:58.963Z,7.85
2022-10-12T11:33:38.370Z,8.07
2022-10-12T11:36:12.616Z,6.03
2022-10-12T11:38:46.026Z,7.20
2022-10-12T11:44:13.216Z,7.30
2022-10-12T11:46:56.209Z,9.93
2022-10-12T11:49:34.660Z,5.03
2022-10-12T11:52:09.437Z,3.95
2022-10-12T11:54:46.601Z,6.10
2022-10-12T11:57:17.975Z,6.35
2022-10-12T11:59:50.743Z,4.60
2022-10-12T12:02:31.703Z,5.22
2022-10-12T12:04:59.127Z,5.05
2022-10-12T12:07:42.477Z,5.53
2022-10-12T12:10:37.282Z,7.25
2022-10-12T12:13:15.304Z,5.35
2022-10-12T12:16:03.510Z,5.28
2022-10-12T12:19:08.527Z,4.43
2022-10-12T12:22:10.287Z,3.00
2022-10-12T12:24:39.127Z,7.00
2022-10-12T12:27:34.284Z,5.75
2022-10-12T12:30:07.153Z,4.53
2022-10-12T12:32:56.676Z,5.60
2022-10-12T12:35:51.969Z,10.68
2022-10-12T12:38:29.598Z,13.25
2022-10-12T12:41:30.202Z,8.02
2022-10-12T12:43:59.541Z,5.22
2022-10-12T12:46:52.002Z,5.07
2022-10-12T12:49:47.454Z,5.85
2022-10-12T12:52:19.717Z,4.85
2022-10-12T12:55:15.888Z,17.45
2022-10-12T12:58:07.118Z,10.60
2022-10-12T13:00:50.233Z,11.23
2022-10-12T13:03:31.478Z,13.68
2022-10-12T13:06:35.247Z,4.45
2022-10-12T13:09:26.069Z,7.35
2022-10-12T13:12:15.490Z,10.98
2022-10-12T13:15:19.338Z,10.05
2022-10-12T13:18:04.475Z,7.53
2022-10-12T13:20:37.484Z,6.88
2022-10-12T13:23:10.018Z,5.78
2022-10-12T13:25:43.347Z,8.47
2022-10-12T13:28:21.844Z,9.77
2022-10-12T13:31:11.483Z,120.67
2022-10-12T13:34:05.361Z,245.07
2022-10-12T13:36:36.124Z,56.17
2022-10-12T13:39:20.651Z,16.60
2022-10-12T13:41:51.528Z,17.63
2022-10-12T13:44:37.343Z,21.77
2022-10-12T13:47:23.674Z,15.53
2022-10-12T13:49:50.909Z,20.93
2022-10-12T13:52:32.373Z,13.53
2022-10-12T13:55:00.152Z,9.83
2022-10-12T13:57:35.486Z,11.17
2022-10-12T14:00:19.121Z,7.77
2022-10-12T14:03:01.033Z,8.13
2022-10-12T14:05:33.344Z,8.20
2022-10-12T14:08:07.000Z,7.13
2022-10-12T14:10:36.802Z,9.27
2022-10-12T14:13:05.536Z,9.13
2022-10-12T14:15:35.758Z,8.07
2022-10-12T14:18:04.664Z,8.93
2022-10-12T14:20:38.903Z,10.75
2022-10-12T14:23:14.171Z,15.55
2022-10-12T14:25:55.382Z,11.87
2022-10-12T14:28:33.011Z,11.13
2022-10-12T14:30:59.909Z,14.23
2022-10-12T14:33:27.867Z,16.95
2022-10-12T14:36:20.909Z,14.20
2022-10-12T14:38:49.651Z,14.75
2022-10-12T14:41:28.678Z,13.23
2022-10-12T14:44:22.475Z,11.98
2022-10-12T14:47:06.098Z,16.63
2022-10-12T14:49:39.145Z,14.43
2022-10-12T14:52:07.453Z,14.23
2022-10-12T14:54:34.314Z,11.98
2022-10-12T14:57:14.765Z,13.33
2022-10-12T14:59:42.165Z,16.10
2022-10-12T15:02:27.762Z,14.37
2022-10-12T15:04:56.423Z,13.70
2022-10-12T15:07:32.829Z,12.32
2022-10-12T15:10:00.608Z,13.38
2022-10-12T15:12:30.501Z,13.23
2022-10-12T15:14:59.946Z,11.90
2022-10-12T15:17:27.034Z,14.07
2022-10-12T15:19:54.008Z,16.40
2022-10-12T15:22:23.392Z,14.68
2022-10-12T15:24:51.732Z,16.47
2022-10-12T15:27:19.108Z,18.03
2022-10-12T15:29:48.077Z,13.47
2022-10-12T15:32:17.251Z,12.07
2022-10-12T15:34:44.501Z,13.00
2022-10-12T15:37:11.744Z,18.17
2022-10-12T15:39:38.712Z,16.50
2022-10-12T15:42:05.713Z,17.07
2022-10-12T15:44:40.123Z,15.63
2022-10-12T15:47:06.965Z,14.97
2022-10-12T15:49:33.815Z,14.43
2022-10-12T15:52:00.803Z,12.87
2022-10-12T15:54:27.910Z,12.30
2022-10-12T15:56:55.398Z,11.57
2022-10-12T15:59:22.555Z,26.87
2022-10-12T16:01:49.654Z,17.83
2022-10-12T16:04:17.078Z,19.40
2022-10-12T16:06:43.961Z,22.50
2022-10-12T16:09:10.794Z,28.87
2022-10-12T16:11:37.744Z,32.93
2022-10-12T16:14:04.830Z,38.30
2022-10-12T16:16:32.324Z,68.00
2022-10-12T16:18:59.498Z,56.00
2022-10-12T16:21:26.580Z,61.50
2022-10-12T16:23:53.926Z,62.43
2022-10-12T16:26:21.003Z,81.07
2022-10-12T16:28:48.139Z,66.03
2022-10-12T16:31:17.800Z,62.87
2022-10-12T16:33:45.609Z,53.03
2022-10-12T16:36:15.523Z,49.00
2022-10-12T16:38:43.496Z,48.63
2022-10-12T16:41:17.345Z,57.00
2022-10-12T16:43:44.239Z,53.07
2022-10-12T16:46:11.156Z,45.13
2022-10-12T16:48:38.440Z,51.70
2022-10-12T16:51:10.728Z,44.87
2022-10-12T16:53:38.166Z,35.80
2022-10-12T16:56:05.610Z,42.53
2022-10-12T16:58:33.039Z,33.53
2022-10-12T17:01:09.077Z,40.50
2022-10-12T17:03:36.003Z,43.83
2022-10-12T17:06:03.040Z,42.77
2022-10-12T17:08:34.046Z,33.13
2022-10-12T17:11:09.291Z,31.13
2022-10-12T17:13:45.233Z,34.80
2022-10-12T17:16:34.038Z,43.03
2022-10-12T17:19:00.882Z,50.47
2022-10-12T17:21:28.221Z,57.83
2022-10-12T17:23:59.367Z,47.40
2022-10-12T17:26:26.277Z,41.23
2022-10-12T17:28:53.718Z,43.67
2022-10-12T17:31:20.786Z,51.90
2022-10-12T17:33:47.979Z,54.70
2022-10-12T17:36:15.052Z,52.87
2022-10-12T17:38:41.878Z,62.23
2022-10-12T17:41:08.815Z,62.10
2022-10-12T17:43:35.687Z,79.33
2022-10-12T17:46:05.112Z,78.87
2022-10-12T17:48:32.060Z,77.50
2022-10-12T17:51:09.835Z,83.53
2022-10-12T17:53:37.331Z,99.27
2022-10-12T17:56:05.610Z,81.30
2022-10-12T17:58:33.143Z,81.03
2022-10-12T18:01:12.984Z,62.47
2022-10-12T18:03:42.180Z,45.90
2022-10-12T18:06:12.090Z,50.17
2022-10-12T18:08:39.378Z,43.97
2022-10-12T18:11:07.140Z,50.87
2022-10-12T18:13:35.723Z,47.83
2022-10-12T18:16:03.457Z,47.73
2022-10-12T18:18:30.513Z,49.90
2022-10-12T18:20:57.685Z,51.93
2022-10-12T18:23:24.832Z,69.07
2022-10-12T18:25:52.906Z,69.77
2022-10-12T18:28:20.071Z,63.73
2022-10-12T18:30:49.097Z,68.40
2022-10-12T18:33:17.576Z,71.90
2022-10-12T18:35:44.569Z,85.50
2022-10-12T18:38:12.627Z,93.90
2022-10-12T18:40:42.159Z,81.47
2022-10-12T18:43:10.317Z,62.97
2022-10-12T18:45:44.746Z,58.40
2022-10-12T18:48:12.881Z,55.50
2022-10-12T18:50:39.899Z,62.00
2022-10-12T18:53:07.275Z,55.97
2022-10-12T18:55:39.156Z,58.97
2022-10-12T18:58:06.239Z,61.73
2022-10-12T19:00:33.483Z,60.83
2022-10-12T19:03:00.435Z,65.57
2022-10-12T19:05:27.604Z,68.07
2022-10-12T19:07:54.711Z,65.93
2022-10-12T19:10:21.600Z,65.03
2022-10-12T19:12:48.485Z,79.47
2022-10-12T19:15:15.457Z,97.70
2022-10-12T19:17:42.352Z,101.63
2022-10-12T19:20:09.530Z,116.67
2022-10-12T19:22:36.376Z,98.10
2022-10-12T19:25:03.530Z,90.33
2022-10-12T19:27:30.389Z,81.00
2022-10-12T19:29:57.236Z,76.30
2022-10-12T19:32:24.070Z,81.87
2022-10-12T19:34:52.152Z,79.50
2022-10-12T19:37:19.055Z,114.80
2022-10-12T19:39:47.136Z,140.90
2022-10-12T19:42:14.048Z,136.67
2022-10-12T19:44:40.900Z,100.70
2022-10-12T19:47:07.769Z,87.80
2022-10-12T19:49:37.790Z,89.10
2022-10-12T19:52:06.327Z,95.37
2022-10-12T19:54:36.243Z,72.73
2022-10-12T19:57:03.388Z,75.57
2022-10-12T19:59:30.213Z,89.23
2022-10-12T20:01:57.098Z,78.20
2022-10-12T20:04:24.241Z,74.80
2022-10-12T20:06:51.051Z,79.40
2022-10-12T20:09:17.890Z,87.03
2022-10-12T20:11:44.766Z,91.07
2022-10-12T20:14:11.759Z,78.30
2022-10-12T20:16:38.601Z,75.17
2022-10-12T20:19:06.971Z,57.70
2022-10-12T20:21:36.367Z,56.87
2022-10-12T20:24:03.381Z,56.83
2022-10-12T20:26:30.361Z,51.87
2022-10-12T20:28:57.540Z,57.70
2022-10-12T20:31:24.870Z,51.60
2022-10-12T20:33:56.309Z,43.70
2022-10-12T20:36:28.546Z,41.00
2022-10-12T20:38:57.124Z,51.13
2022-10-12T20:41:25.337Z,52.20
2022-10-12T20:43:57.357Z,55.50
2022-10-12T20:46:24.553Z,52.07
2022-10-12T20:48:57.344Z,55.23
2022-10-12T20:51:28.666Z,52.80
2022-10-12T20:53:59.250Z,56.30
2022-10-12T20:56:31.131Z,61.77
2022-10-12T20:58:59.285Z,61.87
2022-10-12T21:01:26.726Z,68.73
2022-10-12T21:03:54.543Z,64.47
2022-10-12T21:06:23.564Z,61.33
2022-10-12T21:08:52.527Z,57.30
2022-10-12T21:11:19.981Z,62.97
2022-10-12T21:13:46.968Z,66.63
2022-10-12T21:16:14.542Z,58.33
2022-10-12T21:18:42.561Z,60.97
2022-10-12T21:21:13.670Z,70.87
2022-10-12T21:23:42.066Z,101.73
2022-10-12T21:26:15.153Z,119.73
2022-10-12T21:28:42.269Z,104.13
2022-10-12T21:31:10.979Z,95.43
2022-10-12T21:33:38.922Z,114.83
2022-10-12T21:36:07.437Z,88.03
2022-10-12T21:38:34.730Z,74.37
2022-10-12T21:41:01.605Z,73.73
2022-10-12T21:43:28.785Z,68.30
2022-10-12T21:45:55.896Z,75.73
2022-10-12T21:48:22.731Z,81.23
2022-10-12T21:50:49.875Z,104.97
2022-10-12T21:53:16.750Z,108.80
2022-10-12T21:55:43.634Z,110.37
2022-10-12T21:58:10.750Z,80.47
2022-10-12T22:00:38.120Z,80.00
2022-10-12T22:03:05.004Z,79.47
2022-10-12T22:05:32.107Z,77.70
2022-10-12T22:07:59.031Z,84.57
2022-10-12T22:10:25.884Z,76.33
2022-10-12T22:12:52.694Z,72.40
2022-10-12T22:15:19.645Z,76.17
2022-10-12T22:17:46.483Z,76.00
2022-10-12T22:20:13.469Z,73.57
2022-10-12T22:22:40.549Z,71.60
2022-10-12T22:25:07.924Z,71.50
2022-10-12T22:27:34.926Z,67.77
2022-10-12T22:30:01.999Z,72.70
2022-10-12T22:32:29.214Z,67.57
2022-10-12T22:34:56.297Z,69.23
2022-10-12T22:37:23.481Z,63.53
2022-10-12T22:39:50.593Z,67.70
2022-10-12T22:42:18.050Z,73.90
2022-10-12T22:44:45.172Z,66.87
2022-10-12T22:47:12.020Z,67.47
2022-10-12T22:49:39.149Z,63.93
2022-10-12T22:52:06.106Z,61.10
2022-10-12T22:54:33.071Z,55.90
2022-10-12T22:57:00.325Z,58.90
2022-10-12T22:59:27.433Z,63.23
2022-10-12T23:01:54.696Z,51.97
2022-10-12T23:04:21.932Z,58.93
2022-10-12T23:06:48.839Z,55.80
2022-10-12T23:09:16.005Z,54.87
2022-10-12T23:11:43.120Z,50.83
2022-10-12T23:14:11.595Z,56.83
2022-10-12T23:16:38.686Z,51.60
2022-10-12T23:19:06.299Z,59.70
2022-10-12T23:21:34.572Z,55.93
2022-10-12T23:24:04.932Z,58.87
2022-10-12T23:26:32.547Z,56.57
2022-10-12T23:29:00.000Z,55.77
2022-10-12T23:31:30.607Z,56.13
2022-10-12T23:33:59.720Z,59.47
2022-10-12T23:36:27.057Z,54.13
2022-10-12T23:38:54.265Z,52.37
2022-10-12T23:41:21.319Z,49.53
2022-10-12T23:43:48.446Z,48.47
2022-10-12T23:46:15.285Z,54.83
2022-10-12T23:48:42.386Z,51.40
2022-10-12T23:51:10.228Z,49.77
2022-10-12T23:53:38.272Z,52.53
2022-10-12T23:56:06.228Z,50.87
2022-10-12T23:58:33.702Z,56.93
